Relevés horaires Beauvechain (Belgique)


Relevés horaires à Beauvechain - Samedi 03 Sept. 2022
Heure UTC1 Température [°C] Vent [km/h] Hum. [%] Pres.4 [hPa] Visi. [Km] Nébu. [octa] Préc.5 [mm] Cond.
2m. Res. Ros. Dir.2 Vit. Moy. Raf.3
23:00 18.0 18.0 15.5 S 5.6 -- 7.4 85 1013.7(0.6/3h) 20 -- -- --
22:00 18.2 18.2 15.6 S 3.7 -- 7.4 85 1013.5(0.9/3h) 20 -- -- --
21:00 19.3 19.3 15.6 S 3.7 -- 7.4 79 1013.2(1.4/3h) 20 -- -- --
20:00 19.6 19.6 16.6 NNO 1.9 -- 3.7 83 1013(1.7/3h) 20 -- -- --
19:00 19.6 19.6 16.6 NNO 1.9 -- 5.6 83 1012.5(1.3/3h) 20 -- -- --
18:00 21.0 21.0 16.3 NNO 3.7 -- 16.7 75 1011.7(1.0/3h) 20 -- 0.6/12h
NA
17:00 20.5 20.5 15.6 SSE 3.7 -- 16.7 73 1011.1(0.4/3h) 20 -- -- NA
16:00 22.1 22.1 15.0 SSO 5.6 -- 7.4 64 1011(0.2/3h) 12 -- -- --
15:00 24.7 24.7 13.9 NNO 1.9 -- 13.0 51 1010.5(0.0/3h) 20 -- -- --
14:00 24.6 24.6 14.1 S 3.7 -- 13.0 52 1010.5(-0.2/3h) 20 -- -- --
13:00 24.0 24.0 14.3 SSO 3.7 -- 9.3 55 1010.6(-0.1/3h) 20 -- -- --
12:00 24.5 24.5 14.2 SO 5.6 -- 13.0 53 1010.5(-0.1/3h) 20 -- -- --
11:00 24.1 24.1 14.4 OSO 3.7 -- 9.3 55 1010.7(0.5/3h) 20 -- -- --
10:00 21.3 21.3 13.7 SSO 5.6 -- 13.0 62 1010.8(0.5/3h) 20 -- -- --
09:00 20.9 20.9 13.7 S 7.4 -- 11.1 63 1010.8(1.0/3h) 19 -- -- --
08:00 18.8 18.8 12.2 SSE 3.7 -- 7.4 65 1010.5(0.5/3h) 20 -- -- --
07:00 18.2 18.2 10.9 SSE 5.6 -- 7.4 62 1010.3(0.2/3h) 20 -- -- --
06:00 17.6 17.6 10.6 ESE 3.7 -- 5.6 64 1010(-0.1/3h) 20 -- 0.3/12h
NA
05:00 17.2 17.2 10.6 NNO 1.9 -- 5.6 65 1009.8(0.0/3h) 20 -- -- NA
04:00 18.8 18.8 9.3 NNO 1.9 -- 1.9 54 1010.1(0.2/3h) 20 -- -- --
03:00 18.7 18.7 7.3 NNO 1.9 -- 5.6 47 1010.1(0.0/3h) 20 -- -- --
02:00 19.0 19.0 7.3 ESE 3.7 -- 5.6 47 1009.8(-0.3/3h) 20 -- -- --
01:00 19.0 19.0 7.1 NNO 1.9 -- 3.7 46 1009.8(-0.5/3h) 20 -- -- --
00:00 18.9 18.9 7.2 NNO 1.9 -- 9.3 47 1010(-0.4/3h) 20 -- -- --

1 Coordinated Universal Time. Actuellement il est 08:00 locale et 07:00 UTC.

2 Le vent souffle depuis la direction indiquée vers la direction oposée.

3 Les rafales max. sont disponible 40 min après l'heure du relevé.

4 Pour les stations d'altitude (plus de 600m) le géopotentiel du niveau le plus proche de la pression obligatoire est indiqué.

5 Les stations disposant d'un diffuseur peuvent indiquer "trace". Cela signifie que des précipitations ont touchés le sol mais que la quantité est inférieure à 0.1 mm.

Récapitulatif de la journée
Température [°C] Vent [km/h] Ensoleillement4 [h] Precipitations totale5 [mm] Pression [Hpa]
Min1 Max.2 Moy.3 Max. Min Max.
15.8 26.0 0 16.7 0 h 0 min 0 1009.8 1013.7

1 Température minimale relevée entre 18:00 UTC la veille et 18:00 UTC le jour donné.

2 Température maximale relevée entre 06:00 UTC le jour donné et 06:00 UTC le lendemain.

3 Vent moyen de la journée basé sur les relevés horaires.

4 Ensoleillement en heures relevé entre 06:00 UTC la veille et 06:00 UTC le jour donné.

5 Précipitations totales tombées entre 06:00 UTC la jour donné et 06:00 UTC le lendemain.

Graphiques horaires